»·PEaware :: WAT169 KLAS-KSAN

WAT169 :: KLAS-KSAN

FLIGHT INFORMATION

Flight Status: Arrived
Operator:
Walker Air Transport
More flights by this operator :: More flights under this callsign
Pilot: Marty P. (27464)
Aircraft: BOEING 737-800
(B738)
More flights by this aircraft type
Origin: KLAS McCarran Intl
United States
Destination: KSAN San Diego Intl-Lindbergh
United States
More flights between these airports :: More routes between these airports
Route: BOACH8 LVELL LUCKI1
File this flight plan on PilotEdge
Remarks:
Altitude:
(Current/Filed)
32,000ft
Speed:
(Current/Filed)
470kts
Departed: 16-Jul-20 04:53 PM
Arrived: 16-Jul-20 05:38 PM
Distance/Time
Traveled:
225nm/0:44
Distance/Time
To Go:
Arrived

Flight Plot

Page will automatically refresh every two minutes.

Flight plan parsing failed; only flown route is shown


Map Options




Map Legend


Flown Route
Filed Route
Departure Airport
Arrival Airport
Navaid (VOR, NDB)
Fix

Horizontal Profiles

Position Reports

Time Latitude Longitude Heading Altitude Ground
Speed
16-Jul-20 16:31 36.080313 -115.147275 61 2191ft 0kts
16-Jul-20 16:32 36.080313 -115.147275 61 2191ft 0kts
16-Jul-20 16:33 36.080313 -115.147275 61 2191ft 0kts
16-Jul-20 16:34 36.080313 -115.147275 61 2191ft 0kts
16-Jul-20 16:35 36.080313 -115.147275 61 2191ft 0kts
16-Jul-20 16:36 36.080313 -115.147275 61 2191ft 0kts
16-Jul-20 16:37 36.080313 -115.147275 61 2191ft 0kts
16-Jul-20 16:38 36.080313 -115.147275 61 2191ft 0kts
16-Jul-20 16:39 36.080313 -115.147275 61 2191ft 0kts
16-Jul-20 16:40 36.080313 -115.147275 61 2191ft 0kts
16-Jul-20 16:41 36.080313 -115.147276 61 2191ft 0kts
16-Jul-20 16:42 36.080275 -115.147931 119 2191ft 2kts
16-Jul-20 16:43 36.080544 -115.148226 155 2191ft 0kts
16-Jul-20 16:44 36.080544 -115.148225 155 2191ft 0kts
16-Jul-20 16:45 36.080544 -115.148225 155 2191ft 0kts
16-Jul-20 16:46 36.080542 -115.148224 155 2191ft 0kts
16-Jul-20 16:47 36.078798 -115.147284 172 2191ft 13kts
16-Jul-20 16:48 36.078039 -115.151807 270 2191ft 17kts
16-Jul-20 16:49 36.078036 -115.157482 269 2191ft 18kts
16-Jul-20 16:50 36.077609 -115.161258 186 2191ft 6kts
16-Jul-20 16:51 36.076394 -115.160784 89 2191ft 6kts
16-Jul-20 16:52 36.075581 -115.119357 92 2536ft 204kts
16-Jul-20 16:53 36.076369 -115.038312 88 4708ft 265kts
16-Jul-20 16:54 36.052608 -114.952978 136 7955ft 269kts
16-Jul-20 16:55 35.986083 -114.919055 181 11057ft 270kts
16-Jul-20 16:56 35.911619 -114.964630 223 11825ft 355kts
16-Jul-20 16:57 35.839530 -115.055209 223 13496ft 383kts
16-Jul-20 16:58 35.768626 -115.156005 229 15575ft 396kts
16-Jul-20 16:59 35.695515 -115.258898 215 17492ft 406kts
16-Jul-20 17:00 35.588564 -115.298005 182 19313ft 413kts
16-Jul-20 17:01 35.472707 -115.302229 181 20984ft 423kts
16-Jul-20 17:03 35.353737 -115.304564 181 22841ft 433kts
16-Jul-20 17:04 35.231800 -115.308184 183 24769ft 443kts
16-Jul-20 17:05 35.107829 -115.314747 184 26600ft 450kts
16-Jul-20 17:06 34.982376 -115.323266 184 28247ft 457kts
16-Jul-20 17:07 34.858649 -115.330258 186 30349ft 447kts
16-Jul-20 17:08 34.739164 -115.359364 197 31854ft 450kts
16-Jul-20 17:09 34.619659 -115.405253 199 31901ft 450kts
16-Jul-20 17:10 34.501284 -115.454683 200 31986ft 450kts
16-Jul-20 17:11 34.383673 -115.505088 200 31981ft 448kts
16-Jul-20 17:12 34.272698 -115.572692 209 31982ft 449kts
16-Jul-20 17:13 34.159907 -115.636027 203 31983ft 449kts
16-Jul-20 17:14 34.046962 -115.691387 201 31967ft 450kts
16-Jul-20 17:15 33.929925 -115.747031 200 31825ft 448kts
16-Jul-20 17:16 33.817726 -115.801819 201 31790ft 448kts
16-Jul-20 17:17 33.704101 -115.856411 200 31066ft 432kts
16-Jul-20 17:18 33.588995 -115.910120 200 27627ft 441kts
16-Jul-20 17:19 33.494440 -115.996072 228 24803ft 433kts
16-Jul-20 17:20 33.422802 -116.107428 232 22050ft 415kts
16-Jul-20 17:21 33.355532 -116.217964 226 19369ft 404kts
16-Jul-20 17:22 33.265977 -116.291949 206 17950ft 394kts
16-Jul-20 17:22 33.184063 -116.340048 205 15994ft 391kts
16-Jul-20 17:24 33.074768 -116.405265 206 13456ft 359kts
16-Jul-20 17:25 32.995978 -116.457019 216 12608ft 308kts
16-Jul-20 17:25 32.942198 -116.511178 219 11540ft 282kts
16-Jul-20 17:26 32.886359 -116.565404 218 10874ft 252kts
16-Jul-20 17:28 32.822755 -116.629640 220 9417ft 256kts
16-Jul-20 17:28 32.777183 -116.678294 229 8343ft 273kts
16-Jul-20 17:29 32.737561 -116.756833 239 6997ft 266kts
16-Jul-20 17:30 32.704116 -116.828563 246 5817ft 234kts
16-Jul-20 17:31 32.682363 -116.899432 249 4752ft 229kts
16-Jul-20 17:32 32.680009 -116.972135 285 3652ft 221kts
16-Jul-20 17:33 32.696569 -117.037552 285 2656ft 167kts
16-Jul-20 17:34 32.708261 -117.085579 285 1834ft 151kts
16-Jul-20 17:35 32.719589 -117.132118 285 915ft 146kts
16-Jul-20 17:36 32.730766 -117.178221 286 77ft 148kts
16-Jul-20 17:37 32.735139 -117.198122 252 27ft 15kts
16-Jul-20 17:38 32.735360 -117.201390 285 27ft 17kts
16-Jul-20 17:39 32.734569 -117.203398 241 27ft 2kts
16-Jul-20 17:40 32.734493 -117.203525 232 27ft 0kts
16-Jul-20 17:41 32.734493 -117.203525 232 27ft 0kts

Navigation Log

Ident Type
Flight plan parsing failed, navigation log unavailable